createdAt,value
2023-01-21T00:01:35.188Z,14.73
2023-01-21T00:05:35.344Z,14.27
2023-01-21T00:09:36.139Z,13.97
2023-01-21T00:13:40.269Z,14.63
2023-01-21T00:17:40.430Z,14.40
2023-01-21T00:21:40.586Z,14.00
2023-01-21T00:25:40.790Z,14.10
2023-01-21T00:29:43.594Z,13.87
2023-01-21T00:33:44.293Z,16.17
2023-01-21T00:37:45.198Z,16.57
2023-01-21T00:41:45.417Z,16.70
2023-01-21T00:45:48.167Z,19.10
2023-01-21T00:49:48.360Z,16.30
2023-01-21T00:53:48.572Z,16.70
2023-01-21T00:57:48.714Z,16.47
2023-01-21T01:01:51.627Z,16.00
2023-01-21T01:05:51.773Z,14.97
2023-01-21T01:09:51.926Z,14.63
2023-01-21T01:13:52.154Z,14.00
2023-01-21T01:17:55.195Z,14.87
2023-01-21T01:21:55.334Z,13.50
2023-01-21T01:26:00.726Z,15.10
2023-01-21T01:30:00.834Z,15.13
2023-01-21T01:34:03.591Z,13.63
2023-01-21T01:38:08.034Z,14.50
2023-01-21T01:42:08.315Z,13.50
2023-01-21T01:46:08.591Z,14.63
2023-01-21T01:50:18.317Z,14.13
2023-01-21T01:54:23.246Z,14.93
2023-01-21T01:58:25.677Z,14.73
2023-01-21T02:02:25.878Z,14.83
2023-01-21T02:06:29.791Z,15.23
2023-01-21T02:10:30.137Z,14.70
2023-01-21T02:14:32.411Z,15.07
2023-01-21T02:18:45.754Z,15.60
2023-01-21T02:23:01.607Z,15.83
2023-01-21T02:27:43.793Z,14.80
2023-01-21T02:32:22.797Z,14.13
2023-01-21T02:36:59.210Z,14.33
2023-01-21T02:41:14.452Z,14.43
2023-01-21T02:45:29.717Z,13.83
2023-01-21T02:49:38.054Z,14.27
2023-01-21T02:53:40.865Z,14.37
2023-01-21T02:57:47.467Z,13.63
2023-01-21T03:02:08.479Z,13.67
2023-01-21T03:06:55.667Z,13.23
2023-01-21T03:11:12.007Z,13.13
2023-01-21T03:15:31.435Z,13.50
2023-01-21T03:19:39.997Z,12.97
2023-01-21T03:23:47.335Z,13.80
2023-01-21T03:27:52.480Z,14.47
2023-01-21T03:31:59.803Z,13.50
2023-01-21T03:36:04.496Z,13.00
2023-01-21T03:40:19.280Z,13.03
2023-01-21T03:44:22.408Z,12.80
2023-01-21T03:48:31.449Z,12.57
2023-01-21T03:52:32.108Z,12.87
2023-01-21T03:56:32.592Z,12.87
2023-01-21T04:00:35.326Z,12.90
2023-01-21T04:09:45.821Z,13.23
2023-01-21T04:13:46.188Z,13.10
2023-01-21T04:17:48.898Z,12.53
2023-01-21T04:21:49.725Z,13.43
2023-01-21T04:25:51.072Z,13.17
2023-01-21T04:29:51.236Z,13.60
2023-01-21T04:33:53.903Z,14.40
2023-01-21T04:37:54.151Z,13.23
2023-01-21T04:41:54.268Z,14.10
2023-01-21T04:45:54.398Z,13.00
2023-01-21T04:49:57.309Z,12.67
2023-01-21T04:53:57.472Z,13.67
2023-01-21T04:57:57.619Z,14.13
2023-01-21T05:01:57.712Z,13.23
2023-01-21T05:06:00.438Z,13.40
2023-01-21T05:10:00.626Z,12.93
2023-01-21T05:14:00.796Z,13.80
2023-01-21T05:18:01.063Z,16.60
2023-01-21T05:22:04.231Z,16.67
2023-01-21T05:26:04.407Z,15.20
2023-01-21T05:30:04.542Z,14.63
2023-01-21T05:34:04.871Z,14.27
2023-01-21T05:38:07.815Z,14.07
2023-01-21T05:42:08.274Z,14.97
2023-01-21T05:46:09.025Z,15.13
2023-01-21T05:50:11.621Z,15.10
2023-01-21T05:54:14.393Z,15.30
2023-01-21T05:58:14.758Z,15.40
2023-01-21T06:02:14.965Z,15.20
2023-01-21T06:06:15.061Z,14.37
2023-01-21T06:10:19.056Z,15.00
2023-01-21T06:14:19.335Z,14.37
2023-01-21T06:18:19.465Z,15.00
2023-01-21T06:22:20.887Z,14.93
2023-01-21T06:26:25.002Z,13.87
2023-01-21T06:30:27.553Z,14.10
2023-01-21T06:34:27.762Z,12.93
2023-01-21T06:38:27.976Z,12.97
2023-01-21T06:42:30.786Z,12.87
2023-01-21T06:46:30.964Z,12.90
2023-01-21T06:50:31.182Z,13.43
2023-01-21T06:54:31.403Z,11.90
2023-01-21T06:58:34.266Z,13.50
2023-01-21T07:02:34.680Z,12.73
2023-01-21T07:06:34.954Z,12.90
2023-01-21T07:10:35.188Z,12.37
2023-01-21T07:14:38.062Z,12.73
2023-01-21T07:18:38.462Z,13.27
2023-01-21T07:22:38.959Z,10.97
2023-01-21T07:26:39.290Z,11.97
2023-01-21T07:30:42.093Z,13.70
2023-01-21T07:34:42.318Z,12.80
2023-01-21T07:38:42.713Z,11.97
2023-01-21T07:42:42.835Z,12.00
2023-01-21T07:46:45.659Z,12.70
2023-01-21T07:50:45.800Z,10.80
2023-01-21T07:54:45.980Z,10.43
2023-01-21T07:58:47.174Z,9.93
2023-01-21T08:02:55.119Z,9.50
2023-01-21T08:06:57.178Z,9.63
2023-01-21T08:10:58.891Z,9.83
2023-01-21T08:14:59.038Z,10.77
2023-01-21T08:19:01.924Z,10.63
2023-01-21T08:23:03.535Z,12.17
2023-01-21T08:27:03.938Z,12.50
2023-01-21T08:31:09.534Z,11.13
2023-01-21T08:35:13.179Z,12.13
2023-01-21T08:39:16.011Z,10.70
2023-01-21T08:43:16.112Z,11.07
2023-01-21T08:47:16.342Z,11.03
2023-01-21T08:51:21.522Z,10.60
2023-01-21T08:55:21.925Z,11.63
2023-01-21T08:59:28.860Z,11.13
2023-01-21T09:03:30.023Z,10.93
2023-01-21T09:07:32.774Z,10.77
2023-01-21T09:11:34.812Z,10.60
2023-01-21T09:15:35.048Z,10.87
2023-01-21T09:19:35.192Z,9.40
2023-01-21T09:23:39.789Z,8.57
2023-01-21T09:27:39.999Z,8.07
2023-01-21T09:31:40.364Z,7.57
2023-01-21T09:35:40.519Z,8.50
2023-01-21T09:39:43.201Z,8.60
2023-01-21T09:43:49.178Z,8.10
2023-01-21T09:47:52.482Z,8.57
2023-01-21T09:52:02.219Z,7.30
2023-01-21T09:56:24.672Z,7.33
2023-01-21T10:00:39.701Z,8.17
2023-01-21T10:04:51.204Z,8.43
2023-01-21T10:09:49.070Z,8.20
2023-01-21T10:14:28.749Z,8.07
2023-01-21T10:18:35.190Z,7.90
2023-01-21T10:22:36.639Z,7.13
2023-01-21T10:26:38.254Z,6.97
2023-01-21T10:30:46.778Z,6.67
2023-01-21T10:34:56.023Z,6.43
2023-01-21T10:39:11.260Z,7.70
2023-01-21T10:43:23.951Z,6.40
2023-01-21T10:47:42.489Z,6.23
2023-01-21T10:51:52.175Z,5.97
2023-01-21T10:56:19.047Z,5.40
2023-01-21T11:00:25.378Z,5.20
2023-01-21T11:04:31.288Z,4.63
2023-01-21T11:08:31.683Z,5.30
2023-01-21T11:12:33.000Z,5.33
2023-01-21T11:16:48.607Z,5.50
2023-01-21T11:20:52.035Z,5.87
2023-01-21T11:24:54.564Z,5.70
2023-01-21T11:29:14.684Z,5.33
2023-01-21T11:33:23.560Z,5.27
2023-01-21T11:37:29.940Z,4.57
2023-01-21T11:41:30.924Z,4.60
2023-01-21T11:45:34.053Z,4.77
2023-01-21T11:49:35.731Z,4.60
2023-01-21T11:53:38.515Z,4.00
2023-01-21T11:57:38.936Z,4.60
2023-01-21T12:01:39.301Z,4.47
2023-01-21T12:05:45.778Z,4.20
2023-01-21T12:09:53.753Z,4.20
2023-01-21T12:14:04.992Z,5.00
2023-01-21T12:18:19.929Z,4.90
2023-01-21T12:22:42.191Z,5.07
2023-01-21T12:26:49.487Z,4.47
2023-01-21T12:31:08.048Z,4.40
2023-01-21T12:35:19.521Z,4.97
2023-01-21T12:39:27.669Z,4.63
2023-01-21T12:43:36.814Z,5.10
2023-01-21T12:47:47.607Z,4.57
2023-01-21T12:51:53.881Z,5.10
2023-01-21T12:56:10.828Z,5.53
2023-01-21T13:00:24.017Z,7.53
2023-01-21T13:04:43.583Z,4.57
2023-01-21T13:09:06.062Z,4.63
2023-01-21T13:13:21.058Z,5.60
2023-01-21T13:17:29.917Z,7.03
2023-01-21T13:21:42.545Z,7.70
2023-01-21T13:25:53.973Z,7.37
2023-01-21T13:30:04.716Z,7.63
2023-01-21T13:34:22.555Z,7.23
2023-01-21T13:38:35.032Z,6.73
2023-01-21T13:42:50.290Z,6.20
2023-01-21T13:47:09.384Z,6.30
2023-01-21T13:51:38.585Z,8.23
2023-01-21T13:55:54.742Z,6.80
2023-01-21T14:00:00.717Z,8.60
2023-01-21T14:04:09.610Z,6.20
2023-01-21T14:08:22.488Z,6.10
2023-01-21T14:12:36.600Z,6.67
2023-01-21T14:17:09.387Z,6.77
2023-01-21T14:21:49.298Z,7.33
2023-01-21T14:26:11.642Z,6.00
2023-01-21T14:30:21.835Z,6.93
2023-01-21T14:34:27.739Z,6.20
2023-01-21T14:38:46.277Z,6.50
2023-01-21T14:42:53.336Z,7.27
2023-01-21T14:47:23.895Z,7.10
2023-01-21T14:51:25.465Z,8.90
2023-01-21T14:55:32.072Z,7.13
2023-01-21T14:59:43.661Z,8.07
2023-01-21T15:03:52.883Z,7.60
2023-01-21T15:08:07.344Z,7.20
2023-01-21T15:12:19.282Z,7.17
2023-01-21T15:16:38.552Z,7.00
2023-01-21T15:20:50.024Z,7.30
2023-01-21T15:25:21.205Z,6.43
2023-01-21T15:29:36.974Z,6.70
2023-01-21T15:33:48.384Z,7.20
2023-01-21T15:37:53.828Z,7.50
2023-01-21T15:42:13.531Z,6.97
2023-01-21T15:46:31.699Z,7.93
2023-01-21T15:50:46.109Z,8.03
2023-01-21T15:54:58.249Z,7.43
2023-01-21T15:59:15.241Z,7.83
2023-01-21T16:03:30.609Z,7.87
2023-01-21T16:07:59.598Z,7.37
2023-01-21T16:12:20.261Z,8.97
2023-01-21T16:16:40.081Z,10.10
2023-01-21T16:20:45.971Z,9.17
2023-01-21T16:24:52.576Z,9.00
2023-01-21T16:28:52.855Z,7.80
2023-01-21T16:33:12.496Z,10.80
2023-01-21T16:37:16.283Z,10.13
2023-01-21T16:41:27.685Z,9.83
2023-01-21T16:45:28.715Z,9.87
2023-01-21T16:49:29.366Z,9.80
2023-01-21T16:53:30.330Z,10.30
2023-01-21T16:57:35.137Z,11.87
2023-01-21T17:01:36.055Z,11.30
2023-01-21T17:05:40.186Z,12.20
2023-01-21T17:09:40.783Z,11.30
2023-01-21T17:13:46.533Z,10.73
2023-01-21T17:17:48.789Z,12.30
2023-01-21T17:21:55.573Z,12.13
2023-01-21T17:26:03.504Z,11.43
2023-01-21T17:30:30.537Z,11.97
2023-01-21T17:34:32.851Z,11.83
2023-01-21T17:38:33.410Z,11.10
2023-01-21T17:42:42.659Z,11.30
2023-01-21T17:46:51.485Z,12.00
2023-01-21T17:50:52.689Z,11.87
2023-01-21T17:54:52.832Z,10.60
2023-01-21T17:58:55.867Z,11.63
2023-01-21T18:02:58.923Z,10.30
2023-01-21T18:07:00.260Z,9.70
2023-01-21T18:11:00.491Z,10.27
2023-01-21T18:15:00.653Z,10.87
2023-01-21T18:19:03.444Z,10.30
2023-01-21T18:23:03.633Z,11.83
2023-01-21T18:27:05.314Z,10.67
2023-01-21T18:31:05.612Z,11.07
2023-01-21T18:35:09.245Z,11.20
2023-01-21T18:39:21.818Z,11.23
2023-01-21T18:43:21.950Z,12.87
2023-01-21T18:47:23.227Z,10.50
2023-01-21T18:51:26.451Z,9.67
2023-01-21T18:55:31.335Z,10.43
2023-01-21T18:59:31.849Z,10.33
2023-01-21T19:03:32.703Z,10.20
2023-01-21T19:07:35.752Z,9.40
2023-01-21T19:11:36.039Z,10.07
2023-01-21T19:15:36.200Z,10.27
2023-01-21T19:19:36.500Z,9.30
2023-01-21T19:23:40.229Z,10.40
2023-01-21T19:27:44.927Z,10.93
2023-01-21T19:31:45.456Z,10.80
2023-01-21T19:35:48.122Z,9.50
2023-01-21T19:39:50.910Z,10.13
2023-01-21T19:43:51.089Z,9.60
2023-01-21T19:47:54.251Z,13.40
2023-01-21T19:51:54.592Z,10.33
2023-01-21T19:55:58.719Z,9.97
2023-01-21T19:59:59.656Z,9.33
2023-01-21T20:04:01.060Z,9.40
2023-01-21T20:08:02.899Z,11.27
2023-01-21T20:12:06.720Z,11.97
2023-01-21T20:16:19.049Z,11.53
2023-01-21T20:20:26.603Z,11.87
2023-01-21T20:24:26.969Z,9.50
2023-01-21T20:28:39.862Z,10.43
2023-01-21T20:32:40.622Z,10.60
2023-01-21T20:36:41.850Z,10.63
2023-01-21T20:40:42.727Z,10.83
2023-01-21T20:44:45.686Z,9.27
2023-01-21T20:48:47.653Z,10.00
2023-01-21T20:52:48.010Z,9.90
2023-01-21T20:56:48.525Z,10.23
2023-01-21T21:00:52.534Z,10.37
2023-01-21T21:04:53.846Z,9.67
2023-01-21T21:08:54.691Z,9.73
2023-01-21T21:12:55.913Z,10.53
2023-01-21T21:16:58.973Z,9.87
2023-01-21T21:20:59.258Z,9.50
2023-01-21T21:24:59.416Z,10.20
2023-01-21T21:29:00.204Z,10.13
2023-01-21T21:33:04.338Z,9.57
2023-01-21T21:37:04.541Z,9.37
2023-01-21T21:41:26.532Z,9.87
2023-01-21T21:45:27.436Z,9.20
2023-01-21T21:49:31.922Z,10.40
2023-01-21T21:53:33.283Z,9.63
2023-01-21T21:57:34.714Z,9.47
2023-01-21T22:01:36.172Z,9.47
2023-01-21T22:05:38.954Z,9.50
2023-01-21T22:09:39.139Z,10.90
2023-01-21T22:13:43.546Z,10.43
2023-01-21T22:17:43.653Z,10.40
2023-01-21T22:21:46.447Z,12.00
2023-01-21T22:25:46.554Z,11.23
2023-01-21T22:29:46.639Z,11.77
2023-01-21T22:33:47.320Z,9.60
2023-01-21T22:37:50.087Z,11.40
2023-01-21T22:41:50.244Z,10.10
2023-01-21T22:45:50.768Z,10.13
2023-01-21T22:49:50.965Z,11.83
2023-01-21T22:53:55.632Z,10.93
2023-01-21T22:57:55.771Z,10.33
2023-01-21T23:01:55.864Z,9.40
2023-01-21T23:05:57.342Z,8.90
2023-01-21T23:10:00.022Z,8.83
2023-01-21T23:14:00.458Z,8.83
2023-01-21T23:18:00.690Z,8.33
2023-01-21T23:22:00.988Z,8.70
2023-01-21T23:26:05.502Z,8.90
2023-01-21T23:30:05.800Z,8.20
2023-01-21T23:34:06.229Z,8.03
2023-01-21T23:38:07.375Z,8.07
2023-01-21T23:42:10.374Z,9.30
2023-01-21T23:46:16.380Z,9.20
2023-01-21T23:50:17.282Z,13.60
2023-01-21T23:54:18.877Z,13.43
2023-01-21T23:58:21.901Z,11.00
